Rickenbacker International Airport Columbus US
ICAO: KLCK
IATA: LCK
Category: Large
Scheduled Services: No

Elevation: 744 ft
TransAlt. 18000 ft.

Airport Communications:
COLUMBUS APP:119.15
AWOS 3:132.75
COLUMBUS DEP:123.8
GND:121.85
ARNG OPS:36.7
COMD POST:23.88
RICK TWR:120.05
UNICOM:122.95

KLCK Zoom In..

Runways:

(A) RW 05L length 11902 ft width 150 ft
ILS 110.55 / hdg 52

(B) RW 05R length 12102 ft width 200 ft
ILS 110.10 / hdg 52

(C) RW 23L length 12102 ft width 200 ft
ILS 110.10 / hdg 232

(D) RW 23R length 11902 ft width 150 ft
---- / hdg 232

Location; KLCK
Day. 20 / Time. 20.15 Zulu
* Altimeter: 29.93
* Temperature: 22° c. 71.6°f.
* Wind from: 290° Speed 07 kn.
Dewpoint: 21° c.
Visibility: 4 Statute Miles.
Clouds: Scattered 1400 ft.
Clouds: Broken 3700 ft.
Clouds: Overcast 6500 ft.

KLCK 202015Z AUTO 29007KT 4SM VCTSRA SCT014 BKN037 OVC065 22/21 A2993 RMK AO2 LTG DSNT S THRU W T02220209


Wind From 290°
Speed 07 kn.

 
 
jpsmedia.com for Web Design worldairports.se 2018   terms of use